createdAt,value
2023-05-13T00:00:54.944Z,5.57
2023-05-13T00:02:29.469Z,6.28
2023-05-13T00:04:02.820Z,4.80
2023-05-13T00:05:36.083Z,2.50
2023-05-13T00:07:08.330Z,2.47
2023-05-13T00:08:41.665Z,4.95
2023-05-13T00:10:14.245Z,3.20
2023-05-13T00:11:47.426Z,3.20
2023-05-13T00:13:19.581Z,4.60
2023-05-13T00:14:52.729Z,3.83
2023-05-13T00:16:27.830Z,5.00
2023-05-13T00:18:02.559Z,3.75
2023-05-13T00:19:35.890Z,4.63
2023-05-13T00:21:09.226Z,4.93
2023-05-13T00:22:42.549Z,3.70
2023-05-13T00:24:15.841Z,3.78
2023-05-13T00:25:49.376Z,5.03
2023-05-13T00:27:22.558Z,3.03
2023-05-13T00:28:55.680Z,2.53
2023-05-13T00:30:27.874Z,5.28
2023-05-13T00:32:01.412Z,3.60
2023-05-13T00:33:35.078Z,2.22
2023-05-13T00:35:08.795Z,3.65
2023-05-13T00:36:41.988Z,3.38
2023-05-13T00:38:15.891Z,4.95
2023-05-13T00:39:49.085Z,2.22
2023-05-13T00:41:22.477Z,2.88
2023-05-13T00:42:56.100Z,2.33
2023-05-13T00:44:29.425Z,3.53
2023-05-13T00:46:02.850Z,3.70
2023-05-13T00:47:35.096Z,12.80
2023-05-13T00:49:10.485Z,2.25
2023-05-13T00:50:44.827Z,3.17
2023-05-13T00:52:18.167Z,2.90
2023-05-13T00:53:52.566Z,4.10
2023-05-13T00:55:25.913Z,2.65
2023-05-13T00:56:59.601Z,3.92
2023-05-13T00:58:32.958Z,2.72
2023-05-13T01:00:08.003Z,3.50
2023-05-13T01:01:49.236Z,3.55
2023-05-13T01:03:30.492Z,5.05
2023-05-13T01:05:14.722Z,3.00
2023-05-13T01:06:58.139Z,2.63
2023-05-13T01:08:39.302Z,5.05
2023-05-13T01:10:20.976Z,3.60
2023-05-13T01:11:56.865Z,3.45
2023-05-13T01:13:33.067Z,4.03
2023-05-13T01:15:09.328Z,2.95
2023-05-13T01:16:54.096Z,3.13
2023-05-13T01:18:39.288Z,3.35
2023-05-13T01:20:14.252Z,4.90
2023-05-13T01:21:53.812Z,2.90
2023-05-13T01:23:28.073Z,2.40
2023-05-13T01:25:00.672Z,3.70
2023-05-13T01:26:34.206Z,4.00
2023-05-13T01:28:08.006Z,3.30
2023-05-13T01:29:42.712Z,3.08
2023-05-13T01:31:17.111Z,1.98
2023-05-13T01:32:51.800Z,3.75
2023-05-13T01:34:26.207Z,3.22
2023-05-13T01:36:00.865Z,2.15
2023-05-13T01:37:34.917Z,2.47
2023-05-13T01:39:09.550Z,2.55
2023-05-13T01:40:43.125Z,3.15
2023-05-13T01:42:16.755Z,2.38
2023-05-13T01:43:50.513Z,5.30
2023-05-13T01:45:22.711Z,4.00
2023-05-13T01:46:57.199Z,4.40
2023-05-13T01:48:31.310Z,3.03
2023-05-13T01:50:04.699Z,2.58
2023-05-13T01:51:38.035Z,2.83
2023-05-13T01:53:14.212Z,1.92
2023-05-13T01:54:47.808Z,1.55
2023-05-13T01:56:21.332Z,2.63
2023-05-13T01:57:56.749Z,3.03
2023-05-13T01:59:30.892Z,3.10
2023-05-13T02:01:05.918Z,3.70
2023-05-13T02:02:38.163Z,5.28
2023-05-13T02:04:11.531Z,4.57
2023-05-13T02:05:44.794Z,4.15
2023-05-13T02:07:18.742Z,2.60
2023-05-13T02:08:54.675Z,5.63
2023-05-13T02:10:28.205Z,3.55
2023-05-13T02:12:00.409Z,2.15
2023-05-13T02:13:34.879Z,2.50
2023-05-13T02:15:07.904Z,2.03
2023-05-13T02:16:41.118Z,3.90
2023-05-13T02:18:14.435Z,2.30
2023-05-13T02:19:47.823Z,5.63
2023-05-13T02:21:20.475Z,4.75
2023-05-13T02:22:53.867Z,3.78
2023-05-13T02:24:28.400Z,3.80
2023-05-13T02:26:01.769Z,13.05
2023-05-13T02:27:34.995Z,2.30
2023-05-13T02:29:08.541Z,2.30
2023-05-13T02:30:40.721Z,1.52
2023-05-13T02:32:14.151Z,4.30
2023-05-13T02:33:47.815Z,4.55
2023-05-13T02:35:20.207Z,2.92
2023-05-13T02:36:53.479Z,4.13
2023-05-13T02:38:25.858Z,5.93
2023-05-13T02:40:00.380Z,4.53
2023-05-13T02:41:33.635Z,6.25
2023-05-13T02:43:06.944Z,5.35
2023-05-13T02:44:53.340Z,6.35
2023-05-13T02:46:26.718Z,5.97
2023-05-13T02:48:01.698Z,4.35
2023-05-13T02:49:35.868Z,5.22
2023-05-13T02:51:09.605Z,3.42
2023-05-13T02:52:43.224Z,3.55
2023-05-13T02:54:16.387Z,4.35
2023-05-13T02:55:51.057Z,5.65
2023-05-13T02:57:24.323Z,5.45
2023-05-13T02:58:57.793Z,2.55
2023-05-13T03:00:30.364Z,2.65
2023-05-13T03:02:03.494Z,3.22
2023-05-13T03:03:37.305Z,3.88
2023-05-13T03:05:10.940Z,3.75
2023-05-13T03:06:43.204Z,2.28
2023-05-13T03:08:16.649Z,3.75
2023-05-13T03:09:52.362Z,2.97
2023-05-13T03:11:27.313Z,2.70
2023-05-13T03:13:00.725Z,4.25
2023-05-13T03:14:36.902Z,4.45
2023-05-13T03:16:10.374Z,2.70
2023-05-13T03:17:44.522Z,2.95
2023-05-13T03:19:18.106Z,3.92
2023-05-13T03:20:51.248Z,3.30
2023-05-13T03:22:25.312Z,2.92
2023-05-13T03:23:58.438Z,3.92
2023-05-13T03:25:31.485Z,2.50
2023-05-13T03:27:07.049Z,5.65
2023-05-13T03:28:40.732Z,3.10
2023-05-13T03:30:14.928Z,2.20
2023-05-13T03:31:56.644Z,3.03
2023-05-13T03:33:30.668Z,2.72
2023-05-13T03:35:03.807Z,4.75
2023-05-13T03:36:38.850Z,3.63
2023-05-13T03:38:13.088Z,3.05
2023-05-13T03:39:50.630Z,2.80
2023-05-13T03:41:24.120Z,3.75
2023-05-13T03:42:58.707Z,2.65
2023-05-13T03:44:31.946Z,3.33
2023-05-13T03:46:04.096Z,2.85
2023-05-13T03:47:39.219Z,2.97
2023-05-13T03:49:15.899Z,3.80
2023-05-13T03:50:48.193Z,3.42
2023-05-13T03:52:22.250Z,4.90
2023-05-13T03:53:55.538Z,9.13
2023-05-13T03:55:28.686Z,7.18
2023-05-13T03:57:01.081Z,6.80
2023-05-13T03:58:35.701Z,3.53
2023-05-13T04:00:11.397Z,4.43
2023-05-13T04:01:50.078Z,9.40
2023-05-13T04:03:23.616Z,3.38
2023-05-13T04:04:55.969Z,3.70
2023-05-13T04:06:29.304Z,3.05
2023-05-13T04:08:02.387Z,2.90
2023-05-13T04:09:34.909Z,2.40
2023-05-13T04:11:08.717Z,2.97
2023-05-13T04:12:42.660Z,2.70
2023-05-13T04:14:17.216Z,2.50
2023-05-13T04:15:50.643Z,2.45
2023-05-13T04:17:23.854Z,5.10
2023-05-13T04:18:57.690Z,6.20
2023-05-13T04:20:29.840Z,2.38
2023-05-13T04:22:03.214Z,3.05
2023-05-13T04:23:36.348Z,3.22
2023-05-13T04:25:09.589Z,3.80
2023-05-13T04:26:42.698Z,4.43
2023-05-13T04:28:16.847Z,3.10
2023-05-13T04:29:51.587Z,4.53
2023-05-13T04:31:25.432Z,10.43
2023-05-13T04:32:58.721Z,4.28
2023-05-13T04:34:32.054Z,2.30
2023-05-13T04:36:05.897Z,3.00
2023-05-13T04:37:39.346Z,4.95
2023-05-13T04:39:15.129Z,3.58
2023-05-13T04:40:49.004Z,3.25
2023-05-13T04:42:28.160Z,4.65
2023-05-13T04:44:02.687Z,3.22
2023-05-13T04:45:37.116Z,4.32
2023-05-13T04:47:13.928Z,25.88
2023-05-13T04:48:48.418Z,31.00
2023-05-13T04:50:22.012Z,32.47
2023-05-13T04:51:56.019Z,22.80
2023-05-13T04:53:30.308Z,19.58
2023-05-13T04:55:07.273Z,16.73
2023-05-13T04:56:40.652Z,12.10
2023-05-13T04:58:13.763Z,7.00
2023-05-13T04:59:47.362Z,9.80
2023-05-13T05:01:24.189Z,7.63
2023-05-13T05:02:58.241Z,8.43
2023-05-13T05:04:32.610Z,8.73
2023-05-13T05:06:06.894Z,11.13
2023-05-13T05:07:40.599Z,14.75
2023-05-13T05:09:14.973Z,11.05
2023-05-13T05:10:47.097Z,11.70
2023-05-13T05:12:21.465Z,8.77
2023-05-13T05:13:53.928Z,6.20
2023-05-13T05:15:27.368Z,4.40
2023-05-13T05:17:04.580Z,3.83
2023-05-13T05:18:37.976Z,4.43
2023-05-13T05:20:11.598Z,7.03
2023-05-13T05:21:45.550Z,9.63
2023-05-13T05:23:18.422Z,7.38
2023-05-13T05:24:52.310Z,4.50
2023-05-13T05:26:25.450Z,7.30
2023-05-13T05:27:58.880Z,6.18
2023-05-13T05:29:32.144Z,8.43
2023-05-13T05:31:05.389Z,5.75
2023-05-13T05:32:41.484Z,7.90
2023-05-13T05:34:15.062Z,6.13
2023-05-13T05:35:49.936Z,5.57
2023-05-13T05:37:25.723Z,8.80
2023-05-13T05:38:58.852Z,7.15
2023-05-13T05:40:41.844Z,7.72
2023-05-13T05:42:15.151Z,5.82
2023-05-13T05:43:48.706Z,9.32
2023-05-13T05:45:22.014Z,13.77
2023-05-13T05:46:55.620Z,6.95
2023-05-13T05:48:33.139Z,6.93
2023-05-13T05:50:08.771Z,9.63
2023-05-13T05:51:42.052Z,6.85
2023-05-13T05:53:15.560Z,6.35
2023-05-13T05:54:48.959Z,6.40
2023-05-13T05:56:22.300Z,5.03
2023-05-13T05:57:57.196Z,6.07
2023-05-13T05:59:31.737Z,5.85
2023-05-13T06:01:05.788Z,5.25
2023-05-13T06:02:39.579Z,4.90
2023-05-13T06:04:14.482Z,7.60
2023-05-13T06:05:48.025Z,8.13
2023-05-13T06:07:20.196Z,7.05
2023-05-13T06:08:53.512Z,9.57
2023-05-13T06:10:26.672Z,5.40
2023-05-13T06:12:00.854Z,5.75
2023-05-13T06:13:34.140Z,7.32
2023-05-13T06:15:10.699Z,8.65
2023-05-13T06:16:43.948Z,7.25
2023-05-13T06:18:17.220Z,5.07
2023-05-13T06:19:51.747Z,4.57
2023-05-13T06:21:25.122Z,3.95
2023-05-13T06:22:58.335Z,8.32
2023-05-13T06:24:31.944Z,8.48
2023-05-13T06:26:05.201Z,4.97
2023-05-13T06:27:40.317Z,7.43
2023-05-13T06:29:12.637Z,5.55
2023-05-13T06:30:46.301Z,7.13
2023-05-13T06:32:19.528Z,3.83
2023-05-13T06:33:52.698Z,7.05
2023-05-13T06:35:27.257Z,5.28
2023-05-13T06:37:00.580Z,4.82
2023-05-13T06:38:34.720Z,5.07
2023-05-13T06:40:09.913Z,4.95
2023-05-13T06:41:47.527Z,4.95
2023-05-13T06:43:22.902Z,6.57
2023-05-13T06:45:02.657Z,2.88
2023-05-13T06:46:36.777Z,3.42
2023-05-13T06:48:10.253Z,5.35
2023-05-13T06:49:44.102Z,6.63
2023-05-13T06:51:18.637Z,6.15
2023-05-13T06:52:51.819Z,3.85
2023-05-13T06:54:24.508Z,3.63
2023-05-13T06:55:57.888Z,4.90
2023-05-13T06:57:41.842Z,3.78
2023-05-13T06:59:16.529Z,3.30
2023-05-13T07:00:49.747Z,2.58
2023-05-13T07:02:23.057Z,2.95
2023-05-13T07:03:56.496Z,5.80
2023-05-13T07:05:29.950Z,3.25
2023-05-13T07:07:05.033Z,2.58
2023-05-13T07:08:38.507Z,7.35
2023-05-13T07:10:12.185Z,4.00
2023-05-13T07:11:45.352Z,3.75
2023-05-13T07:13:20.222Z,4.15
2023-05-13T07:14:53.583Z,2.88
2023-05-13T07:16:26.864Z,6.93
2023-05-13T07:18:00.054Z,5.05
2023-05-13T07:19:33.282Z,4.70
2023-05-13T07:21:07.688Z,5.05
2023-05-13T07:22:42.296Z,3.25
2023-05-13T07:24:15.768Z,4.88
2023-05-13T07:25:50.129Z,5.25
2023-05-13T07:27:23.425Z,5.07
2023-05-13T07:28:58.006Z,5.00
2023-05-13T07:30:31.508Z,4.22
2023-05-13T07:32:05.984Z,3.95
2023-05-13T07:33:39.324Z,3.15
2023-05-13T07:35:12.717Z,3.78
2023-05-13T07:36:46.140Z,2.67
2023-05-13T07:38:20.760Z,3.35
2023-05-13T07:39:54.479Z,4.50
2023-05-13T07:41:27.860Z,3.10
2023-05-13T07:43:01.079Z,5.47
2023-05-13T07:44:34.236Z,5.60
2023-05-13T07:46:07.611Z,4.15
2023-05-13T07:47:43.011Z,5.43
2023-05-13T07:49:17.569Z,3.67
2023-05-13T07:50:51.069Z,4.18
2023-05-13T07:52:24.597Z,3.55
2023-05-13T07:53:59.135Z,3.65
2023-05-13T07:55:32.371Z,4.78
2023-05-13T07:57:05.623Z,6.20
2023-05-13T07:58:39.033Z,8.10
2023-05-13T08:00:13.056Z,3.05
2023-05-13T08:01:46.190Z,7.50
2023-05-13T08:03:19.442Z,3.75
2023-05-13T08:04:53.061Z,4.13
2023-05-13T08:06:28.342Z,3.17
2023-05-13T08:08:01.909Z,3.67
2023-05-13T08:09:36.705Z,2.80
2023-05-13T08:11:09.944Z,3.22
2023-05-13T08:12:43.577Z,3.13
2023-05-13T08:14:16.687Z,3.00
2023-05-13T08:15:49.833Z,2.42
2023-05-13T08:17:23.374Z,4.55
2023-05-13T08:18:56.830Z,3.22
2023-05-13T08:20:30.685Z,4.50
2023-05-13T08:22:03.928Z,4.57
2023-05-13T08:23:45.533Z,2.42
2023-05-13T08:25:21.564Z,3.05
2023-05-13T08:26:54.878Z,8.35
2023-05-13T08:28:27.305Z,3.60
2023-05-13T08:30:01.052Z,2.95
2023-05-13T08:31:33.277Z,3.00
2023-05-13T08:33:06.509Z,3.28
2023-05-13T08:34:40.204Z,3.75
2023-05-13T08:36:13.522Z,2.85
2023-05-13T08:37:46.724Z,3.78
2023-05-13T08:39:19.938Z,2.28
2023-05-13T08:40:54.473Z,2.45
2023-05-13T08:42:30.347Z,2.10
2023-05-13T08:44:07.047Z,5.32
2023-05-13T08:45:41.277Z,3.20
2023-05-13T08:47:27.717Z,3.75
2023-05-13T08:49:02.629Z,2.00
2023-05-13T08:50:35.818Z,1.98
2023-05-13T08:52:09.707Z,2.05
2023-05-13T08:53:44.410Z,3.33
2023-05-13T08:55:19.503Z,4.00
2023-05-13T08:56:54.332Z,4.55
2023-05-13T08:58:27.826Z,3.70
2023-05-13T09:00:01.062Z,4.35
2023-05-13T09:01:34.589Z,2.03
2023-05-13T09:03:08.228Z,2.33
2023-05-13T09:04:42.847Z,1.75
2023-05-13T09:06:16.452Z,2.90
2023-05-13T09:07:50.044Z,1.85
2023-05-13T09:09:23.565Z,2.33
2023-05-13T09:10:56.943Z,1.85
2023-05-13T09:12:51.826Z,3.05
2023-05-13T09:14:31.198Z,3.45
2023-05-13T09:16:04.379Z,1.50
2023-05-13T09:17:39.910Z,3.05
2023-05-13T09:19:13.865Z,2.35
2023-05-13T09:20:48.156Z,2.95
2023-05-13T09:22:20.709Z,2.03
2023-05-13T09:24:11.323Z,1.55
2023-05-13T09:25:45.099Z,1.65
2023-05-13T09:27:25.240Z,3.15
2023-05-13T09:29:18.291Z,2.05
2023-05-13T09:30:57.075Z,1.73
2023-05-13T09:32:30.895Z,2.13
2023-05-13T09:34:04.031Z,1.70
2023-05-13T09:35:38.658Z,2.47
2023-05-13T09:37:18.577Z,1.58
2023-05-13T09:38:54.198Z,1.23
2023-05-13T09:40:27.454Z,3.13
2023-05-13T09:42:04.309Z,1.75
2023-05-13T09:43:40.859Z,3.10
2023-05-13T09:45:17.407Z,1.50
2023-05-13T09:46:52.765Z,1.60
2023-05-13T09:48:29.408Z,2.35
2023-05-13T09:50:04.557Z,1.77
2023-05-13T09:51:37.886Z,3.28
2023-05-13T09:53:12.478Z,0.90
2023-05-13T09:54:45.852Z,1.67
2023-05-13T09:56:22.029Z,2.00
2023-05-13T09:57:55.514Z,2.60
2023-05-13T09:59:28.817Z,1.00
2023-05-13T10:01:04.555Z,2.40
2023-05-13T10:02:38.010Z,1.38
2023-05-13T10:04:11.640Z,1.00
2023-05-13T10:05:45.865Z,1.15
2023-05-13T10:07:24.466Z,1.85
2023-05-13T10:09:00.438Z,1.67
2023-05-13T10:10:35.998Z,1.40
2023-05-13T10:12:10.648Z,1.23
2023-05-13T10:13:47.868Z,1.70
2023-05-13T10:15:21.673Z,2.28
2023-05-13T10:16:58.639Z,2.63
2023-05-13T10:18:32.617Z,1.55
2023-05-13T10:20:07.701Z,2.80
2023-05-13T10:21:42.116Z,4.38
2023-05-13T10:23:15.335Z,1.83
2023-05-13T10:25:06.074Z,1.58
2023-05-13T10:26:56.844Z,1.35
2023-05-13T10:28:30.736Z,2.15
2023-05-13T10:30:09.670Z,1.75
2023-05-13T10:31:44.058Z,2.75
2023-05-13T10:33:19.421Z,2.95
2023-05-13T10:34:55.594Z,2.13
2023-05-13T10:36:51.588Z,1.83
2023-05-13T10:38:36.977Z,4.15
2023-05-13T19:56:37.262Z,2.38
2023-05-13T19:58:10.536Z,6.22
2023-05-13T19:59:43.770Z,2.33
2023-05-13T20:01:16.933Z,2.15
2023-05-13T20:02:50.232Z,1.95
2023-05-13T20:04:23.579Z,2.10
2023-05-13T20:05:56.790Z,2.90
2023-05-13T20:07:29.925Z,2.40
2023-05-13T20:09:03.044Z,3.80
2023-05-13T20:10:36.852Z,2.58
2023-05-13T20:12:11.474Z,2.78
2023-05-13T20:13:44.696Z,5.30
2023-05-13T20:15:18.694Z,3.85
2023-05-13T20:16:52.302Z,3.15
2023-05-13T20:18:25.785Z,3.65
2023-05-13T20:19:59.112Z,2.78
2023-05-13T20:21:32.414Z,2.45
2023-05-13T20:23:05.642Z,3.55
2023-05-13T20:24:38.815Z,2.92
2023-05-13T20:26:11.991Z,3.95
2023-05-13T20:27:46.585Z,4.45
2023-05-13T20:29:19.843Z,3.83
2023-05-13T20:30:52.432Z,2.95
2023-05-13T20:32:25.680Z,3.40
2023-05-13T20:33:58.870Z,5.72
2023-05-13T20:35:32.107Z,2.60
2023-05-13T20:37:05.048Z,3.65
2023-05-13T20:38:38.179Z,4.57
2023-05-13T20:40:12.235Z,3.53
2023-05-13T20:41:45.473Z,5.35
2023-05-13T20:43:20.296Z,5.68
2023-05-13T20:44:53.553Z,6.38
2023-05-13T20:46:26.834Z,4.10
2023-05-13T20:48:01.251Z,7.03
2023-05-13T20:49:35.156Z,3.53
2023-05-13T20:51:08.882Z,3.55
2023-05-13T20:52:42.022Z,4.38
2023-05-13T20:54:17.384Z,2.90
2023-05-13T20:55:50.802Z,3.50
2023-05-13T20:57:25.698Z,3.53
2023-05-13T20:59:01.467Z,3.75
2023-05-13T21:00:34.633Z,3.65
2023-05-13T21:02:08.519Z,3.25
2023-05-13T21:03:41.824Z,3.63
2023-05-13T21:05:15.240Z,4.65
2023-05-13T21:06:49.065Z,4.30
2023-05-13T21:08:22.386Z,4.47
2023-05-13T21:09:55.554Z,2.97
2023-05-13T21:11:28.676Z,6.03
2023-05-13T21:13:02.275Z,2.00
2023-05-13T21:14:37.053Z,3.70
2023-05-13T21:16:09.352Z,2.60
2023-05-13T21:17:42.499Z,2.95
2023-05-13T21:19:22.475Z,2.05
2023-05-13T21:20:55.761Z,2.38
2023-05-13T21:22:28.997Z,2.03
2023-05-13T21:24:02.082Z,3.55
2023-05-13T21:25:35.336Z,3.05
2023-05-13T21:27:08.980Z,3.45
2023-05-13T21:28:41.383Z,3.30
2023-05-13T21:30:16.151Z,5.35
2023-05-13T21:31:49.294Z,3.38
2023-05-13T21:33:22.671Z,4.35
2023-05-13T21:34:56.621Z,5.13
2023-05-13T21:36:29.702Z,5.03
2023-05-13T21:38:11.493Z,5.07
2023-05-13T21:39:45.526Z,2.03
2023-05-13T21:41:20.026Z,2.42
2023-05-13T21:42:53.137Z,4.63
2023-05-13T21:44:26.355Z,7.25
2023-05-13T21:46:01.079Z,2.58
2023-05-13T21:47:34.314Z,5.30
2023-05-13T21:49:07.594Z,3.40
2023-05-13T21:50:41.197Z,4.88
2023-05-13T21:52:14.608Z,4.85
2023-05-13T21:53:47.995Z,6.90
2023-05-13T21:55:21.175Z,6.13
2023-05-13T21:56:54.355Z,6.45
2023-05-13T21:58:27.763Z,4.63
2023-05-13T22:00:00.982Z,4.80
2023-05-13T22:01:35.468Z,3.30
2023-05-13T22:03:08.830Z,3.47
2023-05-13T22:04:41.230Z,3.92
2023-05-13T22:06:14.428Z,3.60
2023-05-13T22:07:47.574Z,4.32
2023-05-13T22:09:20.723Z,4.20
2023-05-13T22:10:54.237Z,6.93
2023-05-13T22:12:27.519Z,3.78
2023-05-13T22:14:01.379Z,3.92
2023-05-13T22:15:34.597Z,5.82
2023-05-13T22:17:10.388Z,4.82
2023-05-13T22:18:43.167Z,7.10
2023-05-13T22:20:16.670Z,8.60
2023-05-13T22:21:49.894Z,7.82
2023-05-13T22:23:23.182Z,8.75
2023-05-13T22:24:55.349Z,7.13
2023-05-13T22:26:28.617Z,5.93
2023-05-13T22:28:01.916Z,4.55
2023-05-13T22:29:35.223Z,7.07
2023-05-13T22:31:08.462Z,5.70
2023-05-13T22:32:43.121Z,7.93
2023-05-13T22:34:16.540Z,6.45
2023-05-13T22:35:49.010Z,7.13
2023-05-13T22:37:22.197Z,5.60
2023-05-13T22:38:55.393Z,4.80
2023-05-13T22:40:28.753Z,4.32
2023-05-13T22:42:01.035Z,3.03
2023-05-13T22:43:34.536Z,4.78
2023-05-13T22:45:08.719Z,4.20
2023-05-13T22:46:42.379Z,3.65
2023-05-13T22:48:17.192Z,3.25
2023-05-13T22:49:49.392Z,1.92
2023-05-13T22:51:22.486Z,5.03
2023-05-13T22:52:55.729Z,2.70
2023-05-13T22:54:29.364Z,5.05
2023-05-13T22:56:02.534Z,2.22
2023-05-13T22:57:35.797Z,6.13
2023-05-13T22:59:09.176Z,3.58
2023-05-13T23:00:43.397Z,3.17
2023-05-13T23:02:16.604Z,3.90
2023-05-13T23:03:51.237Z,2.95
2023-05-13T23:05:24.498Z,2.95
2023-05-13T23:06:57.787Z,2.35
2023-05-13T23:08:31.175Z,2.08
2023-05-13T23:10:04.585Z,2.63
2023-05-13T23:11:37.900Z,5.13
2023-05-13T23:13:11.203Z,3.85
2023-05-13T23:14:43.428Z,2.28
2023-05-13T23:16:16.735Z,2.35
2023-05-13T23:17:50.057Z,2.28
2023-05-13T23:19:25.218Z,3.03
2023-05-13T23:20:58.415Z,3.42
2023-05-13T23:22:31.573Z,3.70
2023-05-13T23:24:05.204Z,3.25
2023-05-13T23:25:38.514Z,2.47
2023-05-13T23:27:11.771Z,2.35
2023-05-13T23:28:44.899Z,3.58
2023-05-13T23:30:18.726Z,6.10
2023-05-13T23:31:52.273Z,4.57
2023-05-13T23:33:25.531Z,2.92
2023-05-13T23:34:59.984Z,2.42
2023-05-13T23:36:33.218Z,2.03
2023-05-13T23:38:06.476Z,2.65
2023-05-13T23:39:39.600Z,4.50
2023-05-13T23:41:11.726Z,2.38
2023-05-13T23:42:44.898Z,3.38
2023-05-13T23:44:18.324Z,3.38
2023-05-13T23:45:51.606Z,2.75
2023-05-13T23:47:24.799Z,3.10
2023-05-13T23:48:57.080Z,2.88
2023-05-13T23:50:31.804Z,2.90
2023-05-13T23:52:05.263Z,2.30
2023-05-13T23:53:38.456Z,2.55
2023-05-13T23:55:11.751Z,2.85
2023-05-13T23:56:45.156Z,5.20
2023-05-13T23:58:18.535Z,5.65
2023-05-13T23:59:51.847Z,2.63
